Terminal Aerodrome Forecast
Issued by NWS

Home | Current Version | Previous Version | Text Only | Print | Product List | Glossary On
Versions: 1 2 3 4 5 6 7 8 9 10 11 12 13 14 15 16
000
FTUS43 KIND 261723
TAFBMG
TAF
KBMG 261723Z 2618/2718 17011KT P6SM SCT080 BKN250
     FM270000 20008KT P6SM VCTS SCT040CB BKN080
     FM270400 21006KT 6SM BR VCTS BKN020CB
     FM271100 24004KT 5SM BR BKN008=

USA.gov is the U.S. government's official web portal to all federal, state and local government web resources and services.